Impacts METAR Board INFO
IDs:

KIAH - Houston/Bush Intl, TX, US

Updated at: 1206 UTC 18 Nov 2017
Potential Impact None Slight Moderate High
Time18/00Z 18/01Z 18/02Z 18/03Z 18/04Z 18/05Z 18/06Z 18/07Z 18/08Z 18/09Z 18/10Z 18/11Z 18/12Z
VIS10 10 10 10 10 10 10 10 10 10 10 10 10
CIG250 250 250 250 -- -- -- -- -- -- -- 20 22
CoverBKNBKNBKNBKNSCTFEWFEWFEWSCTFEWFEWBKNBKN
FltCatVFRVFRVFRVFRVFRVFRVFRVFRVFRVFRVFRMVFRMVFR
WX--------------------------
WDir1901901901801901701801901902002000200
WSpd10 7 9 11 9 9 9 8 6 6 7 4 6
WGst-- -- -- -- -- -- -- -- -- -- -- -- --
Raw hourly METARs
KIAH 172353Z 19010KT 10SM FEW040 BKN250 26/18 A2989 RMK AO2 SLP122 T02610183 10300 20261 57007
KIAH 180053Z 19007KT 10SM BKN250 25/19 A2990 RMK AO2 SLP123 T02500189
KIAH 180153Z 19009KT 10SM FEW030 BKN250 24/20 A2991 RMK AO2 SLP127 T02390200
KIAH 180253Z 18011KT 10SM SCT020 BKN250 23/21 A2991 RMK AO2 SLP127 T02330206 53005
KIAH 180353Z 19009KT 10SM FEW020 SCT250 23/21 A2991 RMK AO2 SLP127 T02330206
KIAH 180453Z 17009KT 10SM FEW020 FEW250 23/21 A2989 RMK AO2 SLP122 T02280206
KIAH 180553Z 18009KT 10SM FEW016 FEW250 22/21 A2988 RMK AO2 SLP119 T02220206 10261 20222 403000200 58009
KIAH 180653Z 19008KT 10SM FEW015 FEW250 22/20 A2987 RMK AO2 SLP113 T02220200
KIAH 180753Z 19006KT 10SM SCT018 SCT250 22/20 A2985 RMK AO2 SLP108 T02220200
KIAH 180853Z 20006KT 10SM FEW020 FEW250 22/20 A2984 RMK AO2 SLP104 T02220200 56015
KIAH 180953Z 20007KT 10SM FEW020 FEW250 22/20 A2982 RMK AO2 SLP099 T02220200
KIAH 181053Z VRB04KT 10SM BKN020 BKN250 22/21 A2983 RMK AO2 SLP099 T02220206
KIAH 181153Z 20006KT 10SM BKN022 BKN250 22/21 A2983 RMK AO2 SLP101 T02170206 10222 20217 55003